Houari Boumediene Airport

DAAG · Algiers, Algerije

7 oktober 2022

Tijd Code Weer Temp. Zicht Plafond Wind METAR/SPECI
10:00
V
25 °C 10 km+ - Var Var 1 kt METAR DAAG 070900Z VRB01KT CAVOK 25/12 Q1022
09:30
V
24 °C 10 km+ - Var Var 2 kt METAR DAAG 070830Z VRB02KT 9999 FEW026 SCT200 24/13 Q1022
09:00
V
24 °C 10 km+ 20.000 ft Var Var 2 kt METAR DAAG 070800Z VRB02KT 9999 FEW026 BKN200 24/13 Q1021
08:30
V
22 °C 10 km+ - Var Var 2 kt METAR DAAG 070730Z VRB02KT 9999 FEW026 SCT100 22/14 Q1021
08:00
V
21 °C 10 km+ - 150° 150° 4 kt METAR DAAG 070700Z 15004KT 9999 FEW023 SCT100 21/13 Q1021
07:30
V
21 °C 10 km+ - 190° 190° 3 kt METAR DAAG 070630Z 19003KT 120V240 9999 FEW023 SCT100 21/13 Q1021
07:00
V
23 °C 10 km+ - 210° 210° 2 kt METAR DAAG 070600Z 21002KT 9999 FEW023 SCT100 23/12 Q1021
06:30
V
22 °C 10 km+ - 210° 210° 3 kt METAR DAAG 070530Z 21003KT 9999 FEW023 SCT100 22/13 Q1021
06:00
V
22 °C 10 km+ - 170° 170° 3 kt METAR DAAG 070500Z 17003KT 120V220 9999 FEW023 SCT200 22/13 Q1021
05:30
V
22 °C 10 km+ - 150° 150° 5 kt METAR DAAG 070430Z 15005KT 100V210 9999 FEW023 SCT200 22/13 Q1021
05:00
V
24 °C 10 km+ - Var Var 2 kt METAR DAAG 070400Z VRB02KT 9999 FEW026 SCT200 24/13 Q1020
04:30
V
23 °C 10 km+ - 130° 130° 4 kt METAR DAAG 070330Z 13004KT 9999 FEW026 SCT200 23/14 Q1020
04:00
V
22 °C 10 km+ - 160° 160° 5 kt METAR DAAG 070300Z 16005KT 9999 FEW026 22/13 Q1020
03:30
V
23 °C 10 km+ - Var Var 2 kt METAR DAAG 070230Z VRB02KT 9999 FEW026 23/13 Q1021
03:00
V
23 °C 10 km+ - Var Var 2 kt METAR DAAG 070200Z VRB02KT 9999 FEW026 23/13 Q1021
02:30
V
23 °C 10 km+ - Var Var 1 kt METAR DAAG 070130Z VRB01KT 9999 FEW026 23/13 Q1021
02:00
V
22 °C 10 km+ - 140° 140° 3 kt METAR DAAG 070100Z 14003KT 110V170 9999 FEW026 SCT100 22/13 Q1021
01:30
V
22 °C 10 km+ - 140° 140° 4 kt METAR DAAG 070030Z 14004KT 9999 FEW026 SCT100 22/13 Q1022
01:00
V
22 °C 10 km+ - 100° 100° 4 kt METAR DAAG 070000Z 10004KT 080V180 9999 FEW026 SCT100 22/13 Q1022
00:30
V
23 °C 10 km+ - 090° 090° 4 kt METAR DAAG 062330Z 09004KT 9999 FEW026 SCT100 23/13 Q1022
00:00
V
22 °C 10 km+ - 120° 120° 5 kt METAR DAAG 062300Z 12005KT 9999 FEW026 SCT100 22/13 Q1022

6 oktober 2022

Tijd Code Weer Temp. Zicht Plafond Wind METAR/SPECI
23:30
V
21 °C 10 km+ - 060° 060° 4 kt METAR DAAG 062230Z 06004KT 030V120 9999 FEW026 SCT200 21/13 Q1023
23:00
V
22 °C 10 km+ - 110° 110° 3 kt METAR DAAG 062200Z 11003KT 9999 FEW026 SCT200 22/14 Q1023
22:30
V
22 °C 10 km+ - 130° 130° 6 kt METAR DAAG 062130Z 13006KT 100V160 9999 FEW026 SCT200 22/13 Q1023
22:00
V
23 °C 10 km+ - Var Var 1 kt METAR DAAG 062100Z VRB01KT 9999 FEW026 SCT200 23/14 Q1023
21:30
V
21 °C 10 km+ - 100° 100° 3 kt METAR DAAG 062030Z 10003KT 9999 FEW026 SCT200 21/15 Q1023
21:00
V
21 °C 10 km+ - 100° 100° 6 kt METAR DAAG 062000Z 10006KT 9999 FEW026 SCT200 21/16 Q1023
20:30
V
21 °C 10 km+ - Var Var 2 kt METAR DAAG 061930Z VRB02KT 9999 FEW026 SCT200 21/16 Q1023
20:00
V
22 °C 10 km+ - 130° 130° 1 kt METAR DAAG 061900Z 13001KT 9999 FEW026 SCT200 22/18 Q1023
19:30
V
23 °C 10 km+ - 310° 310° 3 kt METAR DAAG 061830Z 31003KT 250V350 9999 FEW026 FEW030CB SCT200 23/18 Q1023
19:00
V
23 °C 10 km+ - Var Var 1 kt METAR DAAG 061800Z VRB01KT 9999 FEW026 FEW030CB SCT100 23/17 Q1022
18:00
V
25 °C 10 km+ - 290° 290° 6 kt METAR DAAG 061700Z 29006KT 9999 FEW026 FEW030CB SCT100 25/16 Q1022
17:30
V
25 °C 10 km+ - 280° 280° 6 kt METAR DAAG 061630Z 28006KT 190V310 9999 FEW026 FEW030CB SCT100 25/17 Q1022
17:00
V
26 °C 10 km+ - 350° 350° 6 kt METAR DAAG 061600Z 35006KT 310V010 9999 FEW026 FEW030CB SCT100 26/16 Q1022
16:30
V
27 °C 10 km+ - 350° 350° 8 kt METAR DAAG 061530Z 35008KT 9999 FEW026 FEW030CB SCT100 27/16 Q1022
16:00
V
28 °C 10 km+ - 100° 100° 4 kt METAR DAAG 061500Z 10004KT 050V190 9999 FEW026 FEW030CB SCT100 28/15 Q1022
15:30
V
29 °C 10 km+ - 100° 100° 4 kt METAR DAAG 061430Z 10004KT 060V210 9999 FEW026 FEW030CB SCT100 29/12 Q1022
15:00
V
29 °C 10 km+ - Var Var 3 kt METAR DAAG 061400Z VRB03KT 9999 FEW026 FEW030CB SCT100 29/13 Q1022
14:30
V
28 °C 10 km+ - 180° 180° 5 kt METAR DAAG 061330Z 18005KT 150V230 9999 FEW026 SCT100 28/13 Q1023
14:00
V
27 °C 10 km+ - 180° 180° 6 kt METAR DAAG 061300Z 18006KT 150V240 9999 FEW026 SCT100 27/13 Q1023
13:30
V
27 °C 10 km+ - 180° 180° 8 kt METAR DAAG 061230Z 18008KT 150V210 9999 FEW026 SCT200 27/13 Q1023
13:00
V
27 °C 10 km+ - 170° 170° 9 kt METAR DAAG 061200Z 17009KT 9999 FEW026 SCT200 27/14 Q1024
12:30
V
27 °C 10 km+ - 180° 180° 11 kt METAR DAAG 061130Z 18011KT 150V210 9999 FEW026 SCT200 27/13 Q1024
12:00
V
26 °C 10 km+ - 180° 180° 4 kt METAR DAAG 061100Z 18004KT 130V240 9999 FEW026 SCT200 26/14 Q1024
11:30
V
26 °C 10 km+ - Var Var 3 kt METAR DAAG 061030Z VRB03KT 9999 FEW026 SCT200 26/14 Q1024
11:00
V
26 °C 10 km+ - 170° 170° 3 kt METAR DAAG 061000Z 17003KT 100V220 9999 FEW026 SCT200 26/15 Q1024
10:30
V
25 °C 10 km+ - 210° 210° 3 kt METAR DAAG 060930Z 21003KT 170V250 9999 FEW026 SCT200 25/14 Q1024
10:00
V
25 °C 10 km+ - 180° 180° 3 kt METAR DAAG 060900Z 18003KT 140V250 9999 FEW026 SCT200 25/15 Q1024
09:30
V
25 °C 10 km+ - Var Var 2 kt METAR DAAG 060830Z VRB02KT 9999 FEW026 SCT200 25/15 Q1024
09:00
V
23 °C 10 km+ - 280° 280° 3 kt METAR DAAG 060800Z 28003KT 240V310 9999 FEW023 SCT090 23/16 Q1023
08:30
V
20 °C 10 km+ - Var 000° 0 kt METAR DAAG 060730Z 00000KT 9999 FEW023 SCT090 20/17 Q1023
08:00
V
19 °C 10 km+ - Var Var 2 kt METAR DAAG 060700Z VRB02KT 9999 FEW023 SCT090 19/17 Q1023
07:30
V
17 °C 8 km - Var Var 2 kt METAR DAAG 060630Z VRB02KT 8000 FEW023 SCT090 17/15 Q1023
07:00
V
16 °C 8 km - 190° 190° 3 kt METAR DAAG 060600Z 19003KT 8000 FEW023 SCT090 16/15 Q1022
04:30
V
17 °C 10 km+ 9.000 ft 130° 130° 3 kt METAR DAAG 060330Z 13003KT 110V170 9999 FEW023 BKN090 17/15 Q1022
04:00
V
18 °C 10 km+ 9.000 ft 100° 100° 2 kt METAR DAAG 060300Z 10002KT 9999 FEW023 BKN090 18/16 Q1022
03:30
V
18 °C 8 km - Var Var 2 kt METAR DAAG 060230Z VRB02KT 8000 FEW023 SCT090 18/16 Q1022
02:30
V
18 °C 10 km+ - Var Var 2 kt METAR DAAG 060130Z VRB02KT 9999 FEW023 SCT090 18/16 Q1022
02:00
V
18 °C 10 km+ - Var Var 2 kt METAR DAAG 060100Z VRB02KT 9999 FEW023 SCT090 18/16 Q1023
01:00
V
19 °C 10 km+ - 190° 190° 3 kt METAR DAAG 060000Z 19003KT 9999 FEW023 SCT090 19/16 Q1023
00:30
V
19 °C 10 km+ - 190° 190° 4 kt METAR DAAG 052330Z 19004KT 9999 FEW023 SCT090 19/16 Q1023
00:00
V
19 °C 10 km+ - 170° 170° 4 kt METAR DAAG 052300Z 17004KT 9999 FEW023 SCT090 19/17 Q1023

5 oktober 2022

Tijd Code Weer Temp. Zicht Plafond Wind METAR/SPECI
23:30
V
19 °C 10 km+ - 180° 180° 3 kt METAR DAAG 052230Z 18003KT 9999 FEW023 SCT090 19/17 Q1023
23:00
V
20 °C 10 km+ - 080° 080° 4 kt METAR DAAG 052200Z 08004KT 9999 FEW023 SCT090 20/17 Q1023
22:30
V
21 °C 10 km+ - 070° 070° 6 kt METAR DAAG 052130Z 07006KT 9999 FEW023 SCT090 21/17 Q1022
22:00
V
21 °C 10 km+ 9.000 ft 030° 030° 6 kt METAR DAAG 052100Z 03006KT 9999 FEW023 FEW026CB BKN090 21/17 Q1022
21:30
V
20 °C 10 km+ 9.000 ft 090° 090° 3 kt METAR DAAG 052030Z 09003KT 9999 FEW023 FEW026CB BKN090 20/17 Q1022
21:00
V
21 °C 10 km+ 9.000 ft 110° 110° 4 kt METAR DAAG 052000Z 11004KT 9999 FEW023 FEW026CB BKN090 21/17 Q1022
19:30
V
23 °C 10 km+ 9.000 ft 050° 050° 7 kt METAR DAAG 051830Z 05007KT 9999 FEW023 FEW026CB BKN090 23/17 Q1021
19:00
V
23 °C 10 km+ 9.000 ft 050° 050° 6 kt METAR DAAG 051800Z 05006KT 9999 FEW023 FEW026CB BKN090 23/18 Q1021
18:30
V
23 °C 10 km+ 9.000 ft 060° 060° 7 kt METAR DAAG 051730Z 06007KT 9999 FEW023 FEW026CB BKN090 23/18 Q1021
18:00
V
23 °C 10 km+ 9.000 ft 060° 060° 10 kt METAR DAAG 051700Z 06010KT 9999 FEW023 FEW026CB BKN090 23/18 Q1021
17:30
V
24 °C 10 km+ 9.000 ft 040° 040° 10 kt METAR DAAG 051630Z 04010KT 9999 FEW023 FEW026CB BKN090 24/16 Q1021
17:00
V
24 °C 10 km+ 9.000 ft 050° 050° 9 kt METAR DAAG 051600Z 05009KT 9999 FEW023 FEW026CB BKN090 24/17 Q1021
16:30
V
26 °C 10 km+ 9.000 ft 040° 040° 8 kt METAR DAAG 051530Z 04008KT 9999 FEW023 FEW026CB BKN090 26/16 Q1021
16:00
V
26 °C 10 km+ 9.000 ft 040° 040° 6 kt METAR DAAG 051500Z 04006KT 340V080 9999 FEW023 FEW026CB BKN090 26/16 Q1021
15:30
V
25 °C 10 km+ 9.000 ft 090° 090° 7 kt METAR DAAG 051430Z 09007KT 040V120 9999 FEW023 FEW026CB BKN090 25/16 Q1021
15:00
V
25 °C 10 km+ 10.000 ft 120° 120° 7 kt METAR DAAG 051400Z 12007KT 080V150 9999 FEW023 FEW026CB BKN100 25/15 Q1021
14:30
V
25 °C 10 km+ 9.000 ft 120° 120° 6 kt METAR DAAG 051330Z 12006KT 090V150 9999 -RA FEW020 FEW030CB BKN090 25/16 Q1021
14:00
V
25 °C 10 km+ 20.000 ft Var Var 2 kt METAR DAAG 051300Z VRB02KT 9999 FEW020 FEW030CB BKN200 25/17 Q1021
13:30
V
24 °C 10 km+ 20.000 ft Var Var 2 kt METAR DAAG 051230Z VRB02KT 9999 FEW020 FEW030CB BKN200 24/17 Q1021
13:00
V
25 °C 10 km+ 20.000 ft 080° 080° 3 kt METAR DAAG 051200Z 08003KT 040V150 9999 FEW020 BKN200 25/17 Q1022
12:30
V
25 °C 10 km+ 20.000 ft Var Var 3 kt METAR DAAG 051130Z VRB03KT 9999 FEW020 BKN200 25/16 Q1022
12:00
V
25 °C 10 km+ 20.000 ft 050° 050° 4 kt METAR DAAG 051100Z 05004KT 340V120 9999 FEW020 BKN200 25/16 Q1022
11:30
V
24 °C 10 km+ 20.000 ft Var Var 2 kt METAR DAAG 051030Z VRB02KT 9999 FEW020 BKN200 24/16 Q1022
11:00
V
24 °C 10 km+ 20.000 ft 090° 090° 3 kt METAR DAAG 051000Z 09003KT 050V140 9999 FEW020 BKN200 24/17 Q1022
10:30
V
22 °C 10 km+ - Var Var 2 kt METAR DAAG 050930Z VRB02KT 9999 FEW020 SCT200 22/16 Q1022
10:00
V
21 °C 10 km+ - 300° 300° 2 kt METAR DAAG 050900Z 30002KT 9999 FEW020 SCT200 21/15 Q1022
Oudere gegevens

Met cookies volgen wij en derde partijen jouw internetgedrag binnen onze site. Als je verdergaat gaan we ervan uit dat je dit goedvindt. Meer info